Time;durP1;ratioP1;P1;durP2;ratioP2;P2;SDS_P1;SDS_P2;PMS_P1;PMS_P2;Temp;Humidity;BMP_temperature;BMP_pressure;BME280_temperature;BME280_humidity;BME280_pressure;Samples;Min_cycle;Max_cycle;Signal;HPM_P1;HPM_P2
2023/04/22 00:01:14;;;;;;;;;;;11.90;79.20;;;;;;5066796;28;19928;-65
2023/04/22 00:03:41;;;;;;;;;;;11.90;79.20;;;;;;5071943;28;20024;-64
2023/04/22 00:06:07;;;;;;;;;;;11.90;79.30;;;;;;5071022;28;19925;-64
2023/04/22 00:08:36;;;;;;;;;;;11.80;79.50;;;;;;5071403;28;20429;-64
2023/04/22 00:11:02;;;;;;;;;;;11.80;79.70;;;;;;5070156;28;19935;-64
2023/04/22 00:13:29;;;;;;;;;;;11.70;80.00;;;;;;5070323;28;19928;-65
2023/04/22 00:15:56;;;;;;;;;;;11.70;79.90;;;;;;5070998;28;20592;-63
2023/04/22 00:18:22;;;;;;;;;;;11.70;79.90;;;;;;5069707;28;19947;-64
2023/04/22 00:20:49;;;;;;;;;;;11.70;79.80;;;;;;5068982;28;19951;-64
2023/04/22 00:23:16;;;;;;;;;;;11.70;79.80;;;;;;5069765;28;20343;-64
2023/04/22 00:25:44;;;;;;;;;;;11.70;79.80;;;;;;5070706;28;19924;-64
2023/04/22 00:28:11;;;;;;;;;;;11.70;79.90;;;;;;5071830;28;19943;-64
2023/04/22 00:30:38;;;;;;;;;;;11.70;80.00;;;;;;5067990;28;19924;-65
2023/04/22 00:33:04;;;;;;;;;;;11.60;79.90;;;;;;5070471;28;19925;-64
2023/04/22 00:35:31;;;;;;;;;;;11.60;80.10;;;;;;5069034;28;20449;-64
2023/04/22 00:37:58;;;;;;;;;;;11.60;80.10;;;;;;5071160;28;19928;-64
2023/04/22 00:40:25;;;;;;;;;;;11.60;80.20;;;;;;5064419;28;19931;-65
2023/04/22 00:42:53;;;;;;;;;;;11.60;80.40;;;;;;5070088;28;19924;-63
2023/04/22 00:45:20;;;;;;;;;;;11.50;80.60;;;;;;5068584;28;20383;-65
2023/04/22 00:47:47;;;;;;;;;;;11.50;80.70;;;;;;5067697;28;19928;-63
2023/04/22 00:50:14;;;;;;;;;;;11.50;80.60;;;;;;5067349;28;19925;-64
2023/04/22 00:52:41;;;;;;;;;;;11.50;80.70;;;;;;5053041;28;19963;-67
2023/04/22 00:55:08;;;;;;;;;;;11.50;80.80;;;;;;5071444;28;20008;-63
2023/04/22 00:57:36;;;;;;;;;;;11.50;80.70;;;;;;5069197;28;19924;-64
2023/04/22 01:00:05;;;;;;;;;;;11.40;80.80;;;;;;5071144;28;20382;-65
2023/04/22 01:02:31;;;;;;;;;;;11.40;81.00;;;;;;5073927;28;20020;-63
2023/04/22 01:05:02;;;;;;;;;;;11.40;81.10;;;;;;5070095;28;20413;-64
2023/04/22 01:07:30;;;;;;;;;;;11.40;81.20;;;;;;5069541;28;19928;-64
2023/04/22 01:10:02;;;;;;;;;;;11.40;81.10;;;;;;5071343;28;19928;-65
2023/04/22 01:12:29;;;;;;;;;;;11.40;81.10;;;;;;5071025;28;20007;-65
2023/04/22 01:14:56;;;;;;;;;;;11.40;81.30;;;;;;5070135;28;19928;-64
2023/04/22 01:17:24;;;;;;;;;;;11.30;81.30;;;;;;5069496;28;19935;-64
2023/04/22 01:19:51;;;;;;;;;;;11.30;81.40;;;;;;5052264;28;19932;-64
2023/04/22 01:22:22;;;;;;;;;;;11.30;81.30;;;;;;5072198;28;19947;-62
2023/04/22 01:24:50;;;;;;;;;;;11.30;81.30;;;;;;5071750;28;19924;-64
2023/04/22 01:27:18;;;;;;;;;;;11.30;81.40;;;;;;5071493;28;19928;-62
2023/04/22 01:29:45;;;;;;;;;;;11.30;81.30;;;;;;5072209;28;19935;-64
2023/04/22 01:32:12;;;;;;;;;;;11.30;81.10;;;;;;5072347;28;19998;-64
2023/04/22 01:34:47;;;;;;;;;;;11.30;81.10;;;;;;5071606;28;19935;-65
2023/04/22 01:37:14;;;;;;;;;;;11.30;81.00;;;;;;5069268;28;20306;-64
2023/04/22 01:39:40;;;;;;;;;;;11.30;81.00;;;;;;5047496;28;19935;-65
2023/04/22 01:42:08;;;;;;;;;;;11.30;81.10;;;;;;5067791;28;19947;-66
2023/04/22 01:44:38;;;;;;;;;;;11.30;81.10;;;;;;5063219;28;19931;-64
2023/04/22 01:47:08;;;;;;;;;;;11.30;80.90;;;;;;5068144;28;19942;-63
2023/04/22 01:49:35;;;;;;;;;;;11.20;80.90;;;;;;5050552;28;19924;-65
2023/04/22 01:52:02;;;;;;;;;;;11.20;81.00;;;;;;5045232;28;19925;-65
2023/04/22 01:54:29;;;;;;;;;;;11.20;81.10;;;;;;5048072;28;19936;-65
2023/04/22 01:56:57;;;;;;;;;;;11.20;81.20;;;;;;5071334;28;20395;-64
2023/04/22 01:59:26;;;;;;;;;;;11.20;81.30;;;;;;5049851;28;19928;-65
2023/04/22 02:01:53;;;;;;;;;;;11.20;81.50;;;;;;5070674;28;19929;-64
2023/04/22 02:04:20;;;;;;;;;;;11.10;81.70;;;;;;5048418;28;20019;-65
2023/04/22 02:06:47;;;;;;;;;;;11.20;81.50;;;;;;5069473;28;19931;-63
2023/04/22 02:09:14;;;;;;;;;;;11.10;81.50;;;;;;5046873;28;19925;-63
2023/04/22 02:11:41;;;;;;;;;;;11.20;81.00;;;;;;5070175;28;19928;-65
2023/04/22 02:14:07;;;;;;;;;;;11.20;81.10;;;;;;5067834;28;19932;-65
2023/04/22 02:16:36;;;;;;;;;;;11.20;80.90;;;;;;5051010;28;20008;-64
2023/04/22 02:19:03;;;;;;;;;;;11.20;80.90;;;;;;5049465;28;19931;-65
2023/04/22 02:21:31;;;;;;;;;;;11.20;81.00;;;;;;5070705;28;19947;-65
2023/04/22 02:23:57;;;;;;;;;;;11.20;80.90;;;;;;5069642;28;19954;-64
2023/04/22 02:26:25;;;;;;;;;;;11.20;80.80;;;;;;5068006;28;19932;-64
2023/04/22 02:28:52;;;;;;;;;;;11.20;80.80;;;;;;5069266;28;19928;-64
2023/04/22 02:31:18;;;;;;;;;;;11.10;81.00;;;;;;5068057;28;19978;-64
2023/04/22 02:33:47;;;;;;;;;;;11.10;81.20;;;;;;5069639;28;19934;-65
2023/04/22 02:36:14;;;;;;;;;;;11.10;81.30;;;;;;5069452;28;19924;-65
2023/04/22 02:38:41;;;;;;;;;;;11.10;81.40;;;;;;5051200;28;19929;-64
2023/04/22 02:41:08;;;;;;;;;;;11.10;81.40;;;;;;5045951;28;19928;-65
2023/04/22 02:43:36;;;;;;;;;;;11.10;81.50;;;;;;5045901;28;20268;-65
2023/04/22 02:46:03;;;;;;;;;;;11.10;81.50;;;;;;5043124;28;19924;-64
2023/04/22 02:48:30;;;;;;;;;;;11.10;81.60;;;;;;5041772;28;19932;-65
2023/04/22 02:50:58;;;;;;;;;;;11.20;81.20;;;;;;5067411;28;19924;-65
2023/04/22 02:53:25;;;;;;;;;;;11.10;81.30;;;;;;5068786;28;19925;-65
2023/04/22 02:55:54;;;;;;;;;;;11.10;81.50;;;;;;5049138;28;19924;-64
2023/04/22 02:58:21;;;;;;;;;;;11.10;81.50;;;;;;5042798;28;20295;-64
2023/04/22 03:00:48;;;;;;;;;;;11.10;81.60;;;;;;5050769;28;20450;-65
2023/04/22 03:03:15;;;;;;;;;;;11.10;81.50;;;;;;5063232;28;19928;-64
2023/04/22 03:05:42;;;;;;;;;;;11.10;81.30;;;;;;5043056;28;19936;-65
2023/04/22 03:08:10;;;;;;;;;;;11.10;81.40;;;;;;5038265;28;20019;-65
2023/04/22 03:10:37;;;;;;;;;;;11.10;81.60;;;;;;5049969;28;19963;-65
2023/04/22 03:13:03;;;;;;;;;;;11.10;81.80;;;;;;5068564;28;19924;-65
2023/04/22 03:15:30;;;;;;;;;;;11.00;81.80;;;;;;5066588;28;20364;-64
2023/04/22 03:17:57;;;;;;;;;;;11.00;81.80;;;;;;5050010;28;20106;-65
2023/04/22 03:20:24;;;;;;;;;;;11.00;81.90;;;;;;5043170;28;19955;-64
2023/04/22 03:22:50;;;;;;;;;;;11.00;81.80;;;;;;5066815;28;19929;-65
2023/04/22 03:25:20;;;;;;;;;;;11.00;81.90;;;;;;5066105;28;20027;-64
2023/04/22 03:27:52;;;;;;;;;;;10.90;82.10;;;;;;5047269;28;19925;-65
2023/04/22 03:30:18;;;;;;;;;;;11.00;81.90;;;;;;5069114;28;20371;-65
2023/04/22 03:32:46;;;;;;;;;;;11.00;81.80;;;;;;5066245;28;19928;-65
2023/04/22 03:35:20;;;;;;;;;;;11.00;81.90;;;;;;5069026;28;20379;-64
2023/04/22 03:37:49;;;;;;;;;;;11.00;81.80;;;;;;5046531;28;20015;-64
2023/04/22 03:40:22;;;;;;;;;;;11.00;81.80;;;;;;5045174;28;19929;-66
2023/04/22 03:42:49;;;;;;;;;;;11.00;81.50;;;;;;5049865;28;19929;-64
2023/04/22 03:45:18;;;;;;;;;;;11.00;81.60;;;;;;5050962;28;19960;-64
2023/04/22 03:47:49;;;;;;;;;;;11.00;81.50;;;;;;5046081;28;20858;-65
2023/04/22 03:50:22;;;;;;;;;;;11.00;81.30;;;;;;5048676;28;20009;-64
2023/04/22 03:52:50;;;;;;;;;;;11.00;81.30;;;;;;5052447;28;19932;-65
2023/04/22 03:55:20;;;;;;;;;;;11.00;81.40;;;;;;5050461;28;19935;-64
2023/04/22 03:57:50;;;;;;;;;;;11.00;81.30;;;;;;5066037;28;19929;-63
2023/04/22 04:00:17;;;;;;;;;;;11.00;81.40;;;;;;5052395;28;20649;-65
2023/04/22 04:02:50;;;;;;;;;;;10.90;81.50;;;;;;5052944;28;19924;-64
2023/04/22 04:05:20;;;;;;;;;;;10.90;81.80;;;;;;5044282;28;19925;-65
2023/04/22 04:07:47;;;;;;;;;;;10.90;82.00;;;;;;5070042;28;20394;-64
2023/04/22 04:10:14;;;;;;;;;;;10.90;81.90;;;;;;5044834;28;19943;-65
2023/04/22 04:12:40;;;;;;;;;;;10.90;81.80;;;;;;5067996;28;19939;-64
2023/04/22 04:15:09;;;;;;;;;;;10.90;82.00;;;;;;5052747;28;19929;-63
2023/04/22 04:17:36;;;;;;;;;;;10.90;82.20;;;;;;5052638;28;20371;-65
2023/04/22 04:20:05;;;;;;;;;;;10.90;82.20;;;;;;5067073;28;20660;-65
2023/04/22 04:22:34;;;;;;;;;;;10.90;82.20;;;;;;5053947;28;19932;-65
2023/04/22 04:25:02;;;;;;;;;;;10.80;82.40;;;;;;5055268;28;20482;-65
2023/04/22 04:27:34;;;;;;;;;;;10.80;82.40;;;;;;5069488;28;20382;-64
2023/04/22 04:30:03;;;;;;;;;;;10.80;82.50;;;;;;5044107;28;19928;-65
2023/04/22 04:32:37;;;;;;;;;;;10.80;82.60;;;;;;5061929;28;19932;-65
2023/04/22 04:35:08;;;;;;;;;;;10.80;82.40;;;;;;5066968;28;19933;-66
2023/04/22 04:37:35;;;;;;;;;;;10.80;82.50;;;;;;5067146;28;19935;-64
2023/04/22 04:40:09;;;;;;;;;;;10.80;82.60;;;;;;5071030;28;19929;-65
2023/04/22 04:42:56;;;;;;;;;;;10.80;82.60;;;;;;5071134;28;19943;-65
2023/04/22 04:45:27;;;;;;;;;;;10.80;82.60;;;;;;5048134;28;19924;-66
2023/04/22 04:47:57;;;;;;;;;;;10.80;82.60;;;;;;5052639;28;19928;-66
2023/04/22 04:50:28;;;;;;;;;;;10.80;82.50;;;;;;5047525;28;19928;-65
2023/04/22 04:52:58;;;;;;;;;;;10.80;82.40;;;;;;5054355;28;20020;-65
2023/04/22 04:55:32;;;;;;;;;;;10.80;82.70;;;;;;5054325;28;19925;-64
2023/04/22 04:57:59;;;;;;;;;;;10.80;82.80;;;;;;5047860;28;19928;-66
2023/04/22 05:00:26;;;;;;;;;;;10.80;82.80;;;;;;5047870;28;19928;-66
2023/04/22 05:02:52;;;;;;;;;;;10.80;82.60;;;;;;5047128;28;20267;-65
2023/04/22 05:05:20;;;;;;;;;;;10.90;82.60;;;;;;5046635;28;19931;-65
2023/04/22 05:07:47;;;;;;;;;;;10.90;82.60;;;;;;5045934;28;19932;-65
2023/04/22 05:10:16;;;;;;;;;;;10.90;82.80;;;;;;5049101;28;19951;-64
2023/04/22 05:12:45;;;;;;;;;;;10.90;82.60;;;;;;5071931;28;19939;-66
2023/04/22 05:15:16;;;;;;;;;;;11.00;82.70;;;;;;5051013;28;19929;-65
2023/04/22 05:17:43;;;;;;;;;;;11.00;82.70;;;;;;5053821;28;20260;-64
2023/04/22 05:20:10;;;;;;;;;;;11.00;82.30;;;;;;5046496;28;19962;-65
2023/04/22 05:22:42;;;;;;;;;;;11.10;82.40;;;;;;5047384;28;19925;-65
2023/04/22 05:25:09;;;;;;;;;;;11.10;82.10;;;;;;5053410;28;19925;-65
2023/04/22 05:27:38;;;;;;;;;;;11.10;82.00;;;;;;5056895;28;20304;-65
2023/04/22 05:30:06;;;;;;;;;;;11.20;82.20;;;;;;5051340;28;20014;-66
2023/04/22 05:32:34;;;;;;;;;;;11.10;82.10;;;;;;5068162;28;19925;-64
2023/04/22 05:35:00;;;;;;;;;;;11.20;82.30;;;;;;5046364;28;20291;-65
2023/04/22 05:37:27;;;;;;;;;;;11.10;82.60;;;;;;5052107;28;19928;-65
2023/04/22 05:39:56;;;;;;;;;;;11.10;82.50;;;;;;5052380;28;19935;-65
2023/04/22 05:42:23;;;;;;;;;;;11.20;82.60;;;;;;5069076;28;19924;-66
2023/04/22 05:44:50;;;;;;;;;;;11.10;82.40;;;;;;5069602;28;20042;-65
2023/04/22 05:47:17;;;;;;;;;;;11.20;82.70;;;;;;5044785;28;20295;-66
2023/04/22 05:49:44;;;;;;;;;;;11.20;82.80;;;;;;5050514;28;19928;-65
2023/04/22 05:52:17;;;;;;;;;;;11.20;82.30;;;;;;5069942;28;19982;-66
2023/04/22 05:55:12;;;;;;;;;;;11.20;81.90;;;;;;5068718;28;19929;-66
2023/04/22 05:57:38;;;;;;;;;;;11.30;82.10;;;;;;5051018;28;19932;-66
2023/04/22 06:00:12;;;;;;;;;;;11.30;82.10;;;;;;5049609;28;19944;-65
2023/04/22 06:02:41;;;;;;;;;;;11.30;82.00;;;;;;5069227;28;19930;-64
2023/04/22 06:05:08;;;;;;;;;;;11.30;81.70;;;;;;5052582;28;20021;-66
2023/04/22 06:07:35;;;;;;;;;;;11.40;82.20;;;;;;5070054;28;19924;-66
2023/04/22 06:10:02;;;;;;;;;;;11.40;82.10;;;;;;5073488;28;19924;-66
2023/04/22 06:12:31;;;;;;;;;;;11.40;81.50;;;;;;5051445;28;19954;-65
2023/04/22 06:14:57;;;;;;;;;;;11.50;81.90;;;;;;5046361;28;20026;-67
2023/04/22 06:17:24;;;;;;;;;;;11.50;82.00;;;;;;5045326;28;19934;-65
2023/04/22 06:19:52;;;;;;;;;;;11.60;81.10;;;;;;5044601;28;19970;-65
2023/04/22 06:22:19;;;;;;;;;;;11.70;81.50;;;;;;5068115;28;19970;-66
2023/04/22 06:24:46;;;;;;;;;;;11.70;81.40;;;;;;5068858;28;19931;-65
2023/04/22 06:27:13;;;;;;;;;;;11.70;81.60;;;;;;5068288;28;20015;-65
2023/04/22 06:29:41;;;;;;;;;;;11.80;81.60;;;;;;5044243;28;20340;-65
2023/04/22 06:32:08;;;;;;;;;;;11.90;81.80;;;;;;5071479;28;19978;-65
2023/04/22 06:34:37;;;;;;;;;;;12.00;81.60;;;;;;5050098;28;20484;-67
2023/04/22 06:37:04;;;;;;;;;;;12.10;81.40;;;;;;5046648;28;20036;-66
2023/04/22 06:39:31;;;;;;;;;;;12.20;81.60;;;;;;5045077;28;20284;-66
2023/04/22 06:42:07;;;;;;;;;;;12.20;81.40;;;;;;5044168;28;19934;-66
2023/04/22 06:45:11;;;;;;;;;;;12.40;81.10;;;;;;5069981;28;20367;-66
2023/04/22 06:48:00;;;;;;;;;;;12.50;80.70;;;;;;5045895;28;19936;-66
2023/04/22 06:50:44;;;;;;;;;;;12.70;80.20;;;;;;5044992;28;19964;-65
2023/04/22 06:53:11;;;;;;;;;;;12.70;80.00;;;;;;5043202;28;20055;-67
2023/04/22 06:55:38;;;;;;;;;;;12.90;79.40;;;;;;5051909;28;20299;-65
2023/04/22 06:58:05;;;;;;;;;;;12.90;79.00;;;;;;5067734;28;20019;-66
2023/04/22 07:00:33;;;;;;;;;;;13.00;78.60;;;;;;5041150;28;19925;-66
2023/04/22 07:03:00;;;;;;;;;;;13.20;77.70;;;;;;5042411;28;20422;-66
2023/04/22 07:05:27;;;;;;;;;;;13.30;76.70;;;;;;5068787;28;19925;-65
2023/04/22 07:07:54;;;;;;;;;;;13.40;76.70;;;;;;5068158;28;19997;-66
2023/04/22 07:10:23;;;;;;;;;;;13.50;75.90;;;;;;5064241;28;19928;-65
2023/04/22 07:13:12;;;;;;;;;;;13.60;75.70;;;;;;5068972;28;19939;-66
2023/04/22 07:15:45;;;;;;;;;;;13.90;74.50;;;;;;5067306;28;20026;-66
2023/04/22 07:18:12;;;;;;;;;;;14.10;74.10;;;;;;5071629;28;20003;-66
2023/04/22 07:20:39;;;;;;;;;;;14.20;74.40;;;;;;5067781;28;19939;-66
2023/04/22 07:23:06;;;;;;;;;;;14.20;73.80;;;;;;5066485;28;19977;-66
2023/04/22 07:25:32;;;;;;;;;;;14.20;73.70;;;;;;5066678;28;20408;-66
2023/04/22 07:27:59;;;;;;;;;;;14.30;72.70;;;;;;5067877;28;19967;-65
2023/04/22 07:30:26;;;;;;;;;;;14.30;72.60;;;;;;5067848;28;19932;-67
2023/04/22 07:32:54;;;;;;;;;;;14.40;72.40;;;;;;5066444;28;20013;-67
2023/04/22 07:35:21;;;;;;;;;;;14.40;72.50;;;;;;5071577;28;19970;-66
2023/04/22 07:37:48;;;;;;;;;;;14.40;72.40;;;;;;5053451;28;19936;-66
2023/04/22 08:53:04;;;;;;;;;;;16.50;65.80;;;;;;4128104;22;20338;-60
2023/04/22 08:55:31;;;;;;;;;;;16.60;65.80;;;;;;5082244;28;19942;-61
2023/04/22 08:58:00;;;;;;;;;;;16.70;65.30;;;;;;5087598;28;19928;-61
2023/04/22 09:00:27;;;;;;;;;;;16.90;64.70;;;;;;5091061;28;20408;-61
2023/04/22 09:02:54;;;;;;;;;;;17.10;64.30;;;;;;5091733;28;19964;-61
2023/04/22 09:05:22;;;;;;;;;;;17.10;64.50;;;;;;5089227;28;19928;-61
2023/04/22 09:07:49;;;;;;;;;;;17.30;64.00;;;;;;5086441;28;19985;-62
2023/04/22 09:10:17;;;;;;;;;;;17.40;64.00;;;;;;5089258;28;19932;-61
2023/04/22 09:12:44;;;;;;;;;;;17.60;64.00;;;;;;5088019;28;19924;-60
2023/04/22 09:15:11;;;;;;;;;;;17.70;63.50;;;;;;5091883;28;20017;-61
2023/04/22 09:17:38;;;;;;;;;;;17.80;62.90;;;;;;5089149;28;19931;-61
2023/04/22 09:20:07;;;;;;;;;;;17.90;62.30;;;;;;5087966;28;19925;-63
2023/04/22 09:22:37;;;;;;;;;;;18.10;61.90;;;;;;5090632;28;20398;-62
2023/04/22 09:25:05;;;;;;;;;;;18.20;61.80;;;;;;5090322;28;21103;-61
2023/04/22 09:27:35;;;;;;;;;;;18.30;62.00;;;;;;5088088;28;19938;-61
2023/04/22 09:30:07;;;;;;;;;;;18.40;61.30;;;;;;5089951;28;20282;-61
2023/04/22 09:32:34;;;;;;;;;;;18.50;61.60;;;;;;5087957;28;20378;-61
2023/04/22 09:35:01;;;;;;;;;;;18.60;61.70;;;;;;5089126;28;19934;-61
2023/04/22 09:37:28;;;;;;;;;;;18.70;61.90;;;;;;5085980;28;19928;-61
2023/04/22 09:39:55;;;;;;;;;;;18.90;61.30;;;;;;5089155;28;19928;-61
2023/04/22 09:42:21;;;;;;;;;;;19.00;60.40;;;;;;5064944;28;19939;-61
2023/04/22 09:44:51;;;;;;;;;;;19.10;59.70;;;;;;5086649;28;20058;-61
2023/04/22 09:47:18;;;;;;;;;;;19.20;59.60;;;;;;5088175;28;19939;-61
2023/04/22 09:49:46;;;;;;;;;;;19.40;59.20;;;;;;5085903;28;19928;-61
2023/04/22 09:52:20;;;;;;;;;;;19.50;59.80;;;;;;5088168;28;19971;-62
2023/04/22 09:54:49;;;;;;;;;;;19.60;59.00;;;;;;5088556;28;19924;-62
2023/04/22 09:57:16;;;;;;;;;;;19.70;59.60;;;;;;5085358;28;19932;-62
2023/04/22 09:59:44;;;;;;;;;;;19.60;58.50;;;;;;5088010;28;20402;-61
2023/04/22 10:02:14;;;;;;;;;;;19.60;58.60;;;;;;5086371;28;19974;-62
2023/04/22 10:04:41;;;;;;;;;;;19.70;57.50;;;;;;5083581;28;20452;-60
2023/04/22 10:07:08;;;;;;;;;;;19.90;55.90;;;;;;5073536;28;20019;-63
2023/04/22 10:09:35;;;;;;;;;;;20.00;56.90;;;;;;5088195;28;19924;-62
2023/04/22 10:12:02;;;;;;;;;;;20.00;58.00;;;;;;5088917;28;20555;-61
2023/04/22 10:14:29;;;;;;;;;;;19.90;56.90;;;;;;5066493;28;20443;-61
2023/04/22 10:17:01;;;;;;;;;;;19.80;56.40;;;;;;5087514;28;19956;-62
2023/04/22 10:19:34;;;;;;;;;;;19.70;56.30;;;;;;5092968;28;19939;-61
2023/04/22 10:22:02;;;;;;;;;;;19.70;57.00;;;;;;5092097;28;19928;-61
2023/04/22 10:24:34;;;;;;;;;;;19.70;56.90;;;;;;5088114;28;19928;-62
2023/04/22 10:27:05;;;;;;;;;;;19.70;56.30;;;;;;5091368;28;19931;-62
2023/04/22 10:29:35;;;;;;;;;;;19.70;55.60;;;;;;5082013;28;19986;-62
2023/04/22 10:32:05;;;;;;;;;;;19.70;55.90;;;;;;5089900;28;19985;-61
2023/04/22 10:34:37;;;;;;;;;;;19.80;56.20;;;;;;5089047;28;19932;-62
2023/04/22 10:37:05;;;;;;;;;;;19.80;55.50;;;;;;5093159;28;19939;-62
2023/04/22 10:39:32;;;;;;;;;;;19.70;54.70;;;;;;5091442;28;19935;-61
2023/04/22 10:42:08;;;;;;;;;;;19.70;54.30;;;;;;5086248;28;20393;-62
2023/04/22 10:44:46;;;;;;;;;;;19.90;54.70;;;;;;5068496;28;19924;-61
2023/04/22 10:47:25;;;;;;;;;;;20.00;54.90;;;;;;5089674;28;19935;-62
2023/04/22 10:50:08;;;;;;;;;;;20.20;54.20;;;;;;5090133;28;20275;-61
2023/04/22 10:52:35;;;;;;;;;;;20.30;54.10;;;;;;5088755;28;19939;-62
2023/04/22 10:55:02;;;;;;;;;;;20.40;53.40;;;;;;5090537;28;19928;-62
2023/04/22 10:57:36;;;;;;;;;;;20.50;53.60;;;;;;5090160;28;20015;-61
2023/04/22 11:00:25;;;;;;;;;;;20.50;53.50;;;;;;5083760;28;19924;-60
2023/04/22 11:02:52;;;;;;;;;;;20.60;52.20;;;;;;5089837;28;19967;-61
2023/04/22 11:05:24;;;;;;;;;;;20.70;50.40;;;;;;5092723;28;20294;-63
2023/04/22 11:07:53;;;;;;;;;;;20.70;50.50;;;;;;5090344;28;19934;-60
2023/04/22 11:10:39;;;;;;;;;;;20.70;50.40;;;;;;5091428;28;20400;-61
2023/04/22 11:13:07;;;;;;;;;;;20.70;50.20;;;;;;5090181;28;19928;-62
2023/04/22 11:15:35;;;;;;;;;;;20.80;51.00;;;;;;5092109;28;19932;-61
2023/04/22 11:18:02;;;;;;;;;;;20.80;50.80;;;;;;5091322;28;19924;-62
2023/04/22 11:20:30;;;;;;;;;;;20.90;51.90;;;;;;5093819;28;19971;-60
2023/04/22 11:22:57;;;;;;;;;;;21.00;52.90;;;;;;5089459;28;19936;-62
2023/04/22 11:25:25;;;;;;;;;;;21.10;53.20;;;;;;5092868;28;19928;-61
2023/04/22 11:27:52;;;;;;;;;;;21.20;53.20;;;;;;5091697;28;19993;-62
2023/04/22 11:30:22;;;;;;;;;;;21.30;50.20;;;;;;5090996;28;19932;-60
2023/04/22 11:32:50;;;;;;;;;;;21.30;51.10;;;;;;5090122;28;19970;-59
2023/04/22 11:35:18;;;;;;;;;;;21.40;52.70;;;;;;5092744;28;19931;-60
2023/04/22 11:37:49;;;;;;;;;;;21.40;51.10;;;;;;5085199;28;19932;-61
2023/04/22 11:40:18;;;;;;;;;;;21.50;51.40;;;;;;5089464;28;20016;-60
2023/04/22 11:42:47;;;;;;;;;;;21.50;49.70;;;;;;5092632;28;20575;-61
2023/04/22 11:45:13;;;;;;;;;;;21.50;48.80;;;;;;5092729;28;19928;-63
2023/04/22 11:47:40;;;;;;;;;;;21.60;51.30;;;;;;5092297;28;19947;-61
2023/04/22 11:50:10;;;;;;;;;;;21.60;49.60;;;;;;5092346;28;19928;-62
2023/04/22 11:52:44;;;;;;;;;;;21.60;51.30;;;;;;5089219;28;19932;-61
2023/04/22 11:55:12;;;;;;;;;;;21.70;47.80;;;;;;5092438;28;19932;-61
2023/04/22 11:57:39;;;;;;;;;;;21.70;49.40;;;;;;5093255;28;19928;-61
2023/04/22 12:00:07;;;;;;;;;;;21.60;48.70;;;;;;5085577;28;19943;-63
2023/04/22 12:02:33;;;;;;;;;;;21.60;49.70;;;;;;5093404;28;20421;-61
2023/04/22 12:05:02;;;;;;;;;;;21.60;48.10;;;;;;5091523;28;19924;-61
2023/04/22 12:07:29;;;;;;;;;;;21.50;49.20;;;;;;5092127;28;19928;-61
2023/04/22 12:09:56;;;;;;;;;;;21.50;49.80;;;;;;5091932;28;19928;-61
2023/04/22 12:12:25;;;;;;;;;;;21.60;48.20;;;;;;5074253;28;20347;-61
2023/04/22 12:14:52;;;;;;;;;;;21.60;48.50;;;;;;5090119;28;19924;-61
2023/04/22 12:17:22;;;;;;;;;;;21.50;49.70;;;;;;5094502;28;19928;-61
2023/04/22 12:19:53;;;;;;;;;;;21.50;48.30;;;;;;5088346;28;19981;-62
2023/04/22 12:22:26;;;;;;;;;;;21.40;49.90;;;;;;5092627;28;19985;-61
2023/04/22 12:24:53;;;;;;;;;;;21.40;49.10;;;;;;5074083;28;19973;-61
2023/04/22 12:27:20;;;;;;;;;;;21.60;48.80;;;;;;5086809;28;19928;-62
2023/04/22 12:29:55;;;;;;;;;;;21.60;49.30;;;;;;5092917;28;20366;-62
2023/04/22 12:32:23;;;;;;;;;;;21.60;50.50;;;;;;5093338;28;19952;-60
2023/04/22 12:34:49;;;;;;;;;;;21.90;49.30;;;;;;5092060;28;19935;-61
2023/04/22 12:37:16;;;;;;;;;;;22.00;50.50;;;;;;5089435;28;19931;-61
2023/04/22 12:39:43;;;;;;;;;;;22.10;50.50;;;;;;5085637;28;20019;-62
2023/04/22 12:42:10;;;;;;;;;;;22.00;48.70;;;;;;5084200;28;20355;-62
2023/04/22 12:44:37;;;;;;;;;;;21.90;50.70;;;;;;5088400;28;19935;-62
2023/04/22 12:47:08;;;;;;;;;;;21.80;49.50;;;;;;5088429;28;21195;-62
2023/04/22 12:49:35;;;;;;;;;;;21.90;51.60;;;;;;5085020;28;19932;-61
2023/04/22 12:52:02;;;;;;;;;;;21.90;51.30;;;;;;5088639;28;19924;-64
2023/04/22 12:54:28;;;;;;;;;;;22.00;48.80;;;;;;5086813;28;20301;-62
2023/04/22 12:56:56;;;;;;;;;;;21.90;50.30;;;;;;5089358;28;19932;-62
2023/04/22 12:59:23;;;;;;;;;;;21.90;50.30;;;;;;5085147;28;19927;-60
2023/04/22 13:01:50;;;;;;;;;;;21.90;50.30;;;;;;5089197;28;19934;-63
2023/04/22 13:04:19;;;;;;;;;;;21.80;49.20;;;;;;5089326;28;19969;-63
2023/04/22 13:06:49;;;;;;;;;;;21.80;50.80;;;;;;5088144;28;19935;-62
2023/04/22 13:09:16;;;;;;;;;;;21.70;50.60;;;;;;5067235;28;20288;-61
2023/04/22 13:11:43;;;;;;;;;;;21.70;50.60;;;;;;5088160;28;20378;-62
2023/04/22 13:14:10;;;;;;;;;;;21.80;49.40;;;;;;5089858;28;20015;-62
2023/04/22 13:16:37;;;;;;;;;;;21.60;52.20;;;;;;5086213;28;19967;-61
2023/04/22 13:19:03;;;;;;;;;;;21.60;49.70;;;;;;5084370;28;20413;-62
2023/04/22 13:21:32;;;;;;;;;;;21.60;51.80;;;;;;5085320;28;19924;-61
2023/04/22 13:23:58;;;;;;;;;;;21.60;49.30;;;;;;5088003;28;20394;-61
2023/04/22 13:26:26;;;;;;;;;;;21.50;51.60;;;;;;5089203;28;19932;-61
2023/04/22 13:28:53;;;;;;;;;;;21.50;49.50;;;;;;5090038;28;19935;-62
2023/04/22 13:31:19;;;;;;;;;;;21.40;51.30;;;;;;5088431;28;19928;-62
2023/04/22 13:33:46;;;;;;;;;;;21.30;50.20;;;;;;5088174;28;19924;-62
2023/04/22 13:36:13;;;;;;;;;;;21.30;51.60;;;;;;5084969;28;19924;-61
2023/04/22 13:38:41;;;;;;;;;;;21.20;50.30;;;;;;5090763;28;19930;-61
2023/04/22 13:41:08;;;;;;;;;;;21.20;50.20;;;;;;5088439;28;19924;-62
2023/04/22 13:43:35;;;;;;;;;;;21.10;51.30;;;;;;5091572;28;19925;-61
2023/04/22 13:46:01;;;;;;;;;;;21.10;50.60;;;;;;5087868;28;20529;-62
2023/04/22 13:48:28;;;;;;;;;;;21.00;50.50;;;;;;5092507;28;19932;-62
2023/04/22 13:50:55;;;;;;;;;;;21.00;53.20;;;;;;5089330;28;19975;-62
2023/04/22 13:53:22;;;;;;;;;;;21.00;50.20;;;;;;5090605;28;19932;-63
2023/04/22 13:55:50;;;;;;;;;;;20.90;52.60;;;;;;5091228;28;19924;-63
2023/04/22 13:58:17;;;;;;;;;;;20.90;50.50;;;;;;5089098;28;19928;-62
2023/04/22 14:00:44;;;;;;;;;;;20.80;50.70;;;;;;5090723;28;19928;-62
2023/04/22 14:03:11;;;;;;;;;;;20.80;51.20;;;;;;5089894;28;19928;-62
2023/04/22 14:05:38;;;;;;;;;;;20.70;51.30;;;;;;5090305;28;20489;-63
2023/04/22 14:08:05;;;;;;;;;;;20.70;51.30;;;;;;5091227;28;19932;-59
2023/04/22 14:10:31;;;;;;;;;;;20.70;53.20;;;;;;5090281;28;20407;-62
2023/04/22 14:13:00;;;;;;;;;;;20.60;50.40;;;;;;5091855;28;19950;-61
2023/04/22 14:15:26;;;;;;;;;;;20.60;52.00;;;;;;5086562;28;19939;-62
2023/04/22 14:17:53;;;;;;;;;;;20.50;53.80;;;;;;5088226;28;19970;-61
2023/04/22 14:20:20;;;;;;;;;;;20.40;51.20;;;;;;5090316;28;19928;-63
2023/04/22 14:22:47;;;;;;;;;;;20.40;50.90;;;;;;5090413;28;19932;-62
2023/04/22 14:25:13;;;;;;;;;;;20.30;52.60;;;;;;5090860;28;19978;-62
2023/04/22 14:27:40;;;;;;;;;;;20.20;51.80;;;;;;5086574;28;19935;-62
2023/04/22 14:30:09;;;;;;;;;;;20.20;53.90;;;;;;5088448;28;19932;-62
2023/04/22 14:32:36;;;;;;;;;;;20.10;52.50;;;;;;5089153;28;19935;-62
2023/04/22 14:35:03;;;;;;;;;;;20.10;54.10;;;;;;5090219;28;19935;-62
2023/04/22 14:37:30;;;;;;;;;;;20.00;52.40;;;;;;5089376;28;19928;-61
2023/04/22 14:39:57;;;;;;;;;;;20.10;52.10;;;;;;5087545;28;19935;-63
2023/04/22 14:42:24;;;;;;;;;;;20.10;53.10;;;;;;5088320;28;20010;-61
2023/04/22 14:44:50;;;;;;;;;;;20.00;51.90;;;;;;5091615;28;20414;-61
2023/04/22 14:47:19;;;;;;;;;;;19.90;53.00;;;;;;5087910;28;19951;-61
2023/04/22 14:49:46;;;;;;;;;;;19.70;52.60;;;;;;5090287;28;19971;-62
2023/04/22 14:52:12;;;;;;;;;;;19.70;53.80;;;;;;5091392;28;19931;-62
2023/04/22 14:54:39;;;;;;;;;;;19.60;53.40;;;;;;5091911;28;19963;-62
2023/04/22 14:57:06;;;;;;;;;;;19.60;53.70;;;;;;5089582;28;19939;-62
2023/04/22 14:59:33;;;;;;;;;;;19.50;53.10;;;;;;5089295;28;19970;-63
2023/04/22 15:01:59;;;;;;;;;;;19.50;53.50;;;;;;5090968;28;20491;-61
2023/04/22 15:04:28;;;;;;;;;;;19.40;53.50;;;;;;5089764;28;19932;-63
2023/04/22 15:06:56;;;;;;;;;;;19.40;53.40;;;;;;5084441;28;19935;-61
2023/04/22 15:09:23;;;;;;;;;;;19.30;53.70;;;;;;5090993;28;20367;-61
2023/04/22 15:11:50;;;;;;;;;;;19.30;53.90;;;;;;5087300;28;20405;-62
2023/04/22 15:14:16;;;;;;;;;;;19.20;54.10;;;;;;5087369;28;19939;-62
2023/04/22 15:16:43;;;;;;;;;;;19.20;54.20;;;;;;5068029;28;19928;-61
2023/04/22 15:19:10;;;;;;;;;;;19.20;54.60;;;;;;5088526;28;19928;-62
2023/04/22 15:21:38;;;;;;;;;;;19.20;54.50;;;;;;5088066;28;20085;-62
2023/04/22 15:24:05;;;;;;;;;;;19.10;54.40;;;;;;5090168;28;19936;-61
2023/04/22 15:26:32;;;;;;;;;;;19.20;54.70;;;;;;5088126;28;19924;-62
2023/04/22 15:29:00;;;;;;;;;;;19.20;54.00;;;;;;5088807;28;19930;-62
2023/04/22 15:31:27;;;;;;;;;;;19.10;53.60;;;;;;5086339;28;20031;-62
2023/04/22 15:33:53;;;;;;;;;;;19.10;53.50;;;;;;5083016;28;19963;-62
2023/04/22 15:36:20;;;;;;;;;;;19.10;54.10;;;;;;5087820;28;20298;-62